Terminal Aerodrome Forecast
Issued by NWS

Home | Current Version | Previous Version | Text Only | Print | Product List | Glossary On
Versions: 1 2 3 4 5 6 7 8 9 10 11 12 13 14
000
FTUS41 KBTV 300530
TAFRUT
TAF
KRUT 300530Z 3006/3106 13012G20KT P6SM OVC100
     FM301200 17004KT P6SM VCSH OVC035
     FM301600 22007KT P6SM BKN110
      AMD LTD TO CLD VIS AND WIND=

USA.gov is the U.S. government's official web portal to all federal, state and local government web resources and services.